Time;durP1;ratioP1;P1;durP2;ratioP2;P2;SDS_P1;SDS_P2;PMS_P1;PMS_P2;Temp;Humidity;BMP_temperature;BMP_pressure;BME280_temperature;BME280_humidity;BME280_pressure;Samples;Min_cycle;Max_cycle;Signal;HPM_P1;HPM_P2
2021/03/06 00:00:16;;;;;;;25.13;14.50;;;0.10;99.90;;;;;;5007120;28;20033;-63
2021/03/06 00:02:42;;;;;;;24.02;14.20;;;0.10;99.90;;;;;;5029951;28;20025;-63
2021/03/06 00:05:09;;;;;;;25.15;15.32;;;0.20;99.90;;;;;;5028535;28;20036;-63
2021/03/06 00:07:35;;;;;;;26.75;16.08;;;;;;;;;;5031954;28;20033;-62
2021/03/06 00:10:02;;;;;;;24.67;15.25;;;;;;;;;;5030830;28;20029;-64
2021/03/06 00:12:28;;;;;;;29.65;14.10;;;;;;;;;;5032554;28;20025;-63
2021/03/06 00:14:54;;;;;;;28.45;16.20;;;;;;;;;;5010451;28;20056;-64
2021/03/06 00:17:19;;;;;;;27.15;16.58;;;;;;;;;;5012052;28;20088;-63
2021/03/06 00:19:46;;;;;;;25.80;14.60;;;;;;;;;;5009879;28;20030;-64
2021/03/06 00:22:12;;;;;;;25.27;14.45;;;;;;;;;;5031583;28;20033;-63
2021/03/06 00:24:38;;;;;;;25.08;13.77;;;;;;;;;;5031853;28;20552;-66
2021/03/06 00:27:05;;;;;;;23.73;12.88;;;;;;;;;;5031826;28;20029;-64
2021/03/06 00:29:31;;;;;;;23.45;13.20;;;;;;;;;;5033123;28;20037;-64
2021/03/06 00:31:57;;;;;;;21.40;12.38;;;;;;;;;;5035011;28;20560;-64
2021/03/06 00:34:24;;;;;;;24.67;12.95;;;;;;;;;;5050052;28;20108;-65
2021/03/06 00:36:50;;;;;;;22.65;12.77;;;;;;;;;;5031537;28;20034;-65
2021/03/06 00:39:16;;;;;;;23.35;13.48;;;;;;;;;;5030705;28;20033;-61
2021/03/06 00:41:42;;;;;;;24.30;12.98;;;;;;;;;;5014124;28;20034;-66
2021/03/06 00:44:08;;;;;;;23.42;13.20;;;;;;;;;;5014371;28;20456;-63
2021/03/06 00:46:34;;;;;;;25.75;13.05;;;;;;;;;;5031829;28;20029;-63
2021/03/06 00:49:00;;;;;;;22.85;11.98;;;;;;;;;;5012883;28;20037;-64
2021/03/06 00:51:26;;;;;;;22.73;12.68;;;;;;;;;;4680766;28;10000567;-64
2021/03/06 00:53:52;;;;;;;21.17;11.60;;;;;;;;;;5082435;22;20620;-63
2021/03/06 00:56:18;;;;;;;23.02;11.90;;;;;;;;;;5057527;28;20025;-62
2021/03/06 00:58:44;;;;;;;22.65;11.95;;;;;;;;;;5029896;28;20364;-63
2021/03/06 01:01:12;;;;;;;21.60;11.77;;;;;;;;;;5049680;28;20040;-64
2021/03/06 01:03:38;;;;;;;26.55;12.35;;;;;;;;;;5055531;28;20379;-64
2021/03/06 01:06:05;;;;;;;21.35;11.30;;;;;;;;;;5048673;28;20028;-63
2021/03/06 01:08:31;;;;;;;24.20;11.00;;;;;;;;;;5048161;28;20403;-64
2021/03/06 01:10:58;;;;;;;26.02;11.32;;;;;;;;;;5049625;28;20082;-63
2021/03/06 01:13:24;;;;;;;21.42;11.30;;;;;;;;;;5050339;28;20396;-64
2021/03/06 01:15:51;;;;;;;24.63;12.20;;;;;;;;;;5032363;28;20550;-63
2021/03/06 01:18:16;;;;;;;18.83;10.70;;;;;;;;;;5032179;28;20028;-64
2021/03/06 01:20:42;;;;;;;21.52;10.95;;;;;;;;;;5051848;28;20025;-63
2021/03/06 01:23:08;;;;;;;21.60;10.50;;;;;;;;;;5047368;28;20029;-62
2021/03/06 01:25:34;;;;;;;21.55;10.73;;;;;;;;;;5052220;28;20048;-63
2021/03/06 01:28:01;;;;;;;22.80;10.68;;;;;;;;;;5070017;28;20036;-63
2021/03/06 01:30:27;;;;;;;21.85;10.60;;;;;;;;;;5051842;28;20040;-64
2021/03/06 01:32:53;;;;;;;20.98;10.30;;;;;;;;;;5069946;28;20024;-63
2021/03/06 01:35:23;;;;;;;20.65;9.85;;;;;;;;;;5052028;28;20025;-63
2021/03/06 01:37:50;;;;;;;18.85;10.30;;;;;;;;;;5032068;28;20060;-62
2021/03/06 01:40:20;;;;;;;21.75;10.48;;;;;;;;;;5031668;28;20098;-64
2021/03/06 01:42:46;;;;;;;19.40;10.38;;;;;;;;;;5040524;28;20076;-61
2021/03/06 01:45:12;;;;;;;20.00;10.05;;;;;;;;;;5070246;28;20400;-61
2021/03/06 01:47:39;;;;;;;21.85;10.80;;;;;;;;;;5065332;28;20372;-61
2021/03/06 01:50:06;;;;;;;18.60;9.48;;;;;;;;;;5049534;28;20113;-62
2021/03/06 01:52:32;;;;;;;21.10;10.52;;;;;;;;;;5035405;28;20037;-64
2021/03/06 01:54:58;;;;;;;21.02;11.05;;;;;;;;;;5051086;28;20108;-63
2021/03/06 01:57:25;;;;;;;22.08;11.65;;;;;;;;;;5070193;28;20029;-63
2021/03/06 01:59:51;;;;;;;35.17;19.23;;;;;;;;;;5070742;28;20025;-62
2021/03/06 02:02:17;;;;;;;44.97;22.23;;;;;;;;;;5055076;28;20036;-57
2021/03/06 02:04:43;;;;;;;26.02;13.88;;;;;;;;;;5043550;28;20048;-60
2021/03/06 02:07:09;;;;;;;19.90;9.95;;;;;;;;;;5053905;28;20052;-61
2021/03/06 02:09:35;;;;;;;27.40;15.13;;;;;;;;;;5035135;28;20033;-61
2021/03/06 02:12:16;;;;;;;20.67;10.95;;;;;;;;;;5053503;28;20025;-63
2021/03/06 02:15:01;;;;;;;20.92;9.60;;;;;;;;;;5041064;28;20349;-63
2021/03/06 02:17:46;;;;;;;22.40;10.60;;;;;;;;;;5055331;28;20036;-60
2021/03/06 02:20:30;;;;;;;20.13;9.73;;;;;;;;;;5054970;28;20116;-62
2021/03/06 02:23:12;;;;;;;20.00;9.63;;;;;;;;;;5071277;28;20099;-62
2021/03/06 02:25:56;;;;;;;18.45;9.60;;;;;;;;;;5059400;28;20029;-63
2021/03/06 02:28:41;;;;;;;20.30;9.63;;;;;;;;;;5034740;28;20434;-62
2021/03/06 02:31:07;;;;;;;18.48;9.52;;;;;;;;;;5035120;28;20120;-61
2021/03/06 02:33:37;;;;;;;17.95;9.52;;;;;;;;;;5039949;28;20071;-63
2021/03/06 02:36:07;;;;;;;20.33;10.23;;;;;;;;;;5069465;28;20036;-63
2021/03/06 02:38:35;;;;;;;20.08;10.25;;;;;;;;;;5065347;28;20392;-62
2021/03/06 02:41:02;;;;;;;21.02;9.02;;;;;;;;;;5035188;28;20025;-62
2021/03/06 02:43:29;;;;;;;20.27;9.98;;;;;;;;;;5040961;28;20078;-63
2021/03/06 02:45:56;;;;;;;20.77;10.55;;;;;;;;;;5072930;28;20438;-63
2021/03/06 02:48:22;;;;;;;23.58;10.68;;;;;;;;;;5072417;28;20063;-61
2021/03/06 02:50:52;;;;;;;19.38;9.20;;;;;;;;;;5071733;28;20348;-62
2021/03/06 02:53:18;;;;;;;18.20;9.40;;;;;;;;;;5052655;28;20470;-61
2021/03/06 02:55:44;;;;;;;20.80;9.23;;;;;;;;;;5053025;28;20037;-63
2021/03/06 02:58:13;;;;;;;19.70;10.18;;;;;;;;;;5052540;28;20209;-63
2021/03/06 03:01:00;;;;;;;20.45;8.68;;;;;;;;;;5052196;28;20488;-64
2021/03/06 03:03:53;;;;;;;20.20;9.88;;;;;;;;;;5052543;28;20393;-61
2021/03/06 03:06:38;;;;;;;19.80;9.90;;;;;;;;;;5034463;28;20506;-60
2021/03/06 03:09:15;;;;;;;24.05;9.63;;;;;;;;;;5050694;28;20073;-62
2021/03/06 03:11:51;;;;;;;21.73;10.05;;;;;;;;;;5051650;28;20028;-63
2021/03/06 03:14:21;;;;;;;17.90;9.17;;;;;;;;;;5061605;28;20036;-63
2021/03/06 03:16:53;;;;;;;19.10;10.13;;;;;;;;;;5067101;28;20028;-61
2021/03/06 03:19:22;;;;;;;19.30;9.18;;;;;;;;;;5042883;28;20029;-63
2021/03/06 03:21:49;;;;;;;19.83;8.95;;;;;;;;;;5034468;28;20021;-62
2021/03/06 03:24:17;;;;;;;21.23;9.10;;;;;;;;;;5061149;28;20058;-62
2021/03/06 03:26:44;;;;;;;21.05;9.32;;;;;;;;;;5052583;28;20055;-61
2021/03/06 03:29:12;;;;;;;20.25;9.05;;;;;;;;;;5071533;28;20039;-63
2021/03/06 03:31:39;;;;;;;21.85;9.82;;;;;;;;;;5043069;28;20107;-63
2021/03/06 03:34:06;;;;;;;21.00;9.65;;;;;;;;;;5072223;28;20031;-62
2021/03/06 03:36:32;;;;;;;17.23;9.20;;;;;;;;;;5053387;28;20033;-63
2021/03/06 03:38:58;;;;;;;19.52;9.23;;;;;;;;;;5051088;28;20069;-62
2021/03/06 03:41:24;;;;;;;21.90;10.45;;;;;;;;;;5050468;28;20557;-63
2021/03/06 03:43:51;;;;;;;18.55;9.20;;;;;;;;;;5053881;28;20059;-63
2021/03/06 03:46:17;;;;;;;22.08;9.10;;;;;;;;;;5045341;28;20033;-60
2021/03/06 03:48:43;;;;;;;18.77;9.07;;;;;;;;;;5071491;28;20029;-63
2021/03/06 03:51:10;;;;;;;19.27;8.73;;;;;;;;;;5071684;28;20036;-61
2021/03/06 03:53:36;;;;;;;25.92;9.65;;;;;;;;;;5071658;28;20054;-63
2021/03/06 03:56:02;;;;;;;20.90;9.07;;;;;;;;;;5063191;28;20061;-62
2021/03/06 03:58:29;;;;;;;19.23;8.65;;;;;;;;;;5071032;28;20027;-62
2021/03/06 04:00:55;;;;;;;24.15;9.50;;;;;;;;;;5071641;28;20016;-63
2021/03/06 04:03:22;;;;;;;22.35;9.38;;;;;;;;;;5071372;28;20100;-61
2021/03/06 04:05:48;;;;;;;19.10;9.40;;;;;;;;;;5071685;28;20024;-62
2021/03/06 04:08:14;;;;;;;20.70;9.65;;;;;;;;;;5071080;28;20047;-63
2021/03/06 04:10:40;;;;;;;22.85;9.07;;;;;;;;;;5052937;28;20488;-61
2021/03/06 04:13:08;;;;;;;21.73;9.18;;;;;;;;;;5071278;28;20059;-62
2021/03/06 04:15:34;;;;;;;;;;;;;;;;;;5067504;28;20476;-60
2021/03/06 04:18:01;;;;;;;23.75;9.77;;;;;;;;;;5050979;28;19922;-63
2021/03/06 04:20:27;;;;;;;23.25;10.00;;;;;;;;;;5036156;28;20024;-63
2021/03/06 04:22:53;;;;;;;20.70;9.20;;;;;;;;;;5070040;28;20032;-62
2021/03/06 04:25:19;;;;;;;22.58;9.52;;;;;;;;;;5070966;28;20025;-63
2021/03/06 04:27:45;;;;;;;18.98;9.18;;;;;;;;;;5056367;28;20547;-60
2021/03/06 04:30:12;;;;;;;21.42;8.48;;;;;;;;;;5032675;28;20029;-63
2021/03/06 04:32:39;;;;;;;18.95;8.68;;;;;;;;;;5051006;28;20048;-61
2021/03/06 04:35:07;;;;;;;22.00;8.38;;;;;;;;;;5051111;28;20036;-65
2021/03/06 04:37:33;;;;;;;20.63;9.77;;;;;;;;;;5065848;28;20028;-63
2021/03/06 04:39:59;;;;;;;22.27;9.80;;;;;;;;;;5066711;28;20042;-63
2021/03/06 04:42:25;;;;;;;19.52;9.23;;;;;;;;;;5067122;28;20103;-64
2021/03/06 04:44:52;;;;;;;20.40;8.95;;;;;;;;;;5051021;28;20060;-63
2021/03/06 04:47:18;;;;;;;26.40;9.75;;;;;;;;;;5050345;28;20063;-62
2021/03/06 04:49:44;;;;;;;19.67;8.63;;;;;;;;;;5063909;28;20024;-63
2021/03/06 04:52:11;;;;;;;20.88;9.02;;;;;;;;;;5043157;28;20025;-63
2021/03/06 04:54:37;;;;;;;23.92;9.38;;;;;;;;;;5050808;28;20032;-56
2021/03/06 04:57:03;;;;;;;22.52;9.73;;;;;;;;;;5050053;28;20025;-62
2021/03/06 04:59:29;;;;;;;20.30;9.35;;;;;;;;;;5061921;28;20028;-63
2021/03/06 05:01:55;;;;;;;20.95;8.70;;;;;;;;;;5036100;28;20039;-64
2021/03/06 05:04:21;;;;;;;19.65;8.30;;;;;;;;;;5035248;28;20025;-64
2021/03/06 05:06:47;;;;;;;19.10;8.88;;;;;;;;;;5070530;28;20100;-64
2021/03/06 05:09:14;;;;;;;21.75;9.88;;;;;;;;;;5053260;28;20029;-61
2021/03/06 05:11:40;;;;;;;24.98;9.25;;;;;;;;;;5050152;28;20029;-64
2021/03/06 05:14:06;;;;;;;20.73;10.15;;;;;;;;;;5050425;28;20128;-64
2021/03/06 05:16:32;;;;;;;20.35;9.00;;;;;;;;;;5032484;28;20559;-63
2021/03/06 05:18:58;;;;;;;22.60;9.95;;;;;;;;;;5046486;28;20029;-64
2021/03/06 05:21:24;;;;;;;19.40;9.30;;;;;;;;;;5069190;28;20033;-64
2021/03/06 05:23:50;;;;;;;21.05;10.80;;;;;;;;;;5058638;28;20115;-65
2021/03/06 05:26:17;;;;;;;19.23;9.90;;;;;;;;;;5070340;28;20063;-63
2021/03/06 05:28:43;;;;;;;20.42;10.35;;;;;;;;;;5069552;28;20457;-61
2021/03/06 05:31:09;;;;;;;19.85;9.25;;;;;;;;;;5070134;28;20059;-62
2021/03/06 05:33:35;;;;;;;18.80;9.40;;;;;;;;;;5052055;28;20096;-62
2021/03/06 05:36:01;;;;;;;20.60;9.38;;;;;;;;;;5072169;28;20033;-61
2021/03/06 05:38:27;;;;;;;20.40;9.95;;;;;;;;;;5073964;28;20074;-59
2021/03/06 05:40:53;;;;;;;25.02;10.20;;;;;;;;;;5056184;28;20063;-63
2021/03/06 05:43:19;;;;;;;21.38;9.80;;;;;;;;;;5063506;28;20029;-61
2021/03/06 05:45:46;;;;;;;20.52;9.85;;;;;;;;;;5054268;28;20032;-63
2021/03/06 05:48:13;;;;;;;21.45;9.98;;;;;;;;;;5054486;28;20033;-61
2021/03/06 05:50:39;;;;;;;21.67;9.45;;;;;;;;;;5037602;28;20071;-61
2021/03/06 05:53:07;;;;;;;25.30;11.30;;;;;;;;;;5062667;28;20036;-62
2021/03/06 05:55:33;;;;;;;19.27;9.65;;;;;;;;;;5056016;28;20786;-62
2021/03/06 05:58:01;;;;;;;20.85;10.02;;;;;;;;;;5074434;28;20111;-64
2021/03/06 06:00:27;;;;;;;23.00;11.18;;;;;;;;;;5065687;28;20029;-63
2021/03/06 06:02:57;;;;;;;19.55;9.90;;;;;;;;;;5073779;28;20361;-62
2021/03/06 06:05:26;;;;;;;22.40;10.25;;;;;;;;;;5065582;28;20395;-64
2021/03/06 06:07:54;;;;;;;19.92;10.18;;;;;;;;;;5055755;28;20032;-63
2021/03/06 06:10:20;;;;;;;18.77;9.93;;;;;;;;;;5055618;28;20032;-60
2021/03/06 06:12:46;;;;;;;20.58;11.05;;;;;;;;;;5073561;28;20028;-61
2021/03/06 06:15:13;;;;;;;19.98;10.40;;;;;;;;;;5073461;28;20038;-63
2021/03/06 06:17:39;;;;;;;18.45;9.50;;;;;;;;;;5055330;28;20028;-61
2021/03/06 06:20:06;;;;;;;21.88;10.55;;;;;;;;;;5068893;28;20025;-62
2021/03/06 06:22:32;;;;;;;22.35;10.32;;;;;;;;;;5073234;28;20036;-61
2021/03/06 06:24:58;;;;;;;21.05;9.68;;;;;;;;;;5073408;28;20035;-61
2021/03/06 06:27:28;;;;;;;21.73;10.90;;;;;;;;;;5046154;28;20032;-61
2021/03/06 06:29:55;;;;;;;23.77;11.07;;;;;;;;;;5052825;28;20025;-59
2021/03/06 06:32:25;;;;;;;21.58;10.75;;;;;;;;;;5035300;28;20128;-60
2021/03/06 06:34:59;;;;;;;20.80;9.88;;;;;;;;;;5053267;28;20025;-60
2021/03/06 06:37:25;;;;;;;25.17;11.75;;;;;;;;;;5053197;28;20089;-61
2021/03/06 06:39:51;;;;;;;20.55;9.98;;;;;;;;;;5058553;28;20074;-61
2021/03/06 06:42:17;;;;;;;22.13;10.90;;;;;;;;;;5055069;28;20068;-63
2021/03/06 06:44:54;;;;;;;23.00;10.35;;;;;;;;;;5073235;28;20024;-63
2021/03/06 06:47:20;;;;;;;25.63;11.23;;;;;;;;;;5072131;28;20038;-62
2021/03/06 06:49:47;;;;;;;24.33;10.73;;;;;;;;;;5072549;28;20024;-63
2021/03/06 06:52:13;;;;;;;25.25;12.52;;;;;;;;;;5049304;28;20079;-62
2021/03/06 06:54:40;;;;;;;22.55;11.15;;;;;;;;;;5080337;22;20469;-65
2021/03/06 06:57:06;;;;;;;20.35;9.82;;;;;;;;;;5054405;28;20682;-65
2021/03/06 06:59:32;;;;;;;21.80;10.45;;;;;;;;;;5052919;28;20033;-64
2021/03/06 07:01:58;;;;;;;19.95;10.40;;;;;;;;;;5032600;28;20120;-64
2021/03/06 07:04:24;;;;;;;23.98;10.95;;;;;;;;;;5034506;28;20104;-65
2021/03/06 07:06:59;;;;;;;22.60;12.15;;;;;;;;;;5035681;28;20461;-64
2021/03/06 07:09:25;;;;;;;23.50;13.00;;;;;;;;;;5053429;28;20067;-64
2021/03/06 07:11:51;;;;;;;22.48;11.38;;;0.10;99.90;;;;;;5022262;28;20061;-64
2021/03/06 07:14:38;;;;;;;21.83;11.73;;;-0.70;99.90;;;;;;5016174;28;20112;-65
2021/03/06 07:17:04;;;;;;;29.30;13.30;;;-0.60;99.90;;;;;;5046845;28;20385;-65
2021/03/06 07:19:31;;;;;;;29.02;13.13;;;-0.60;99.90;;;;;;5043743;28;20042;-64
2021/03/06 07:22:01;;;;;;;23.55;11.70;;;-0.50;99.90;;;;;;5000886;28;20030;-63
2021/03/06 07:24:27;;;;;;;22.55;12.32;;;-0.40;99.90;;;;;;5003871;28;20116;-63
2021/03/06 07:26:53;;;;;;;22.92;11.10;;;-0.40;99.90;;;;;;4997003;28;20071;-64
2021/03/06 07:29:20;;;;;;;25.42;12.40;;;-0.40;99.90;;;;;;5013588;28;20030;-64
2021/03/06 07:31:48;;;;;;;26.45;11.10;;;;;;;;;;5001809;28;20180;-64
2021/03/06 07:34:14;;;;;;;;;;;;;;;;;;5066157;28;20110;-64
2021/03/06 07:36:42;;;;;;;22.95;10.77;;;;;;;;;;5046371;28;19909;-64
2021/03/06 07:39:08;;;;;;;22.02;10.30;;;;;;;;;;5032821;28;20040;-65
2021/03/06 07:41:42;;;;;;;20.77;10.98;;;;;;;;;;5033377;28;20492;-65
2021/03/06 07:44:12;;;;;;;24.92;11.90;;;;;;;;;;5015777;28;20112;-64
2021/03/06 07:46:39;;;;;;;22.90;11.10;;;;;;;;;;5012601;28;20061;-64
2021/03/06 07:49:24;;;;;;;27.48;11.60;;;;;;;;;;5032229;28;20399;-64
2021/03/06 07:51:51;;;;;;;21.17;11.35;;;-0.30;99.90;;;;;;5029754;28;20045;-64
2021/03/06 07:54:17;;;;;;;18.33;10.02;;;0.40;99.90;;;;;;5014064;28;20087;-64
2021/03/06 07:56:43;;;;;;;19.88;10.85;;;0.60;99.90;;;;;;5028533;28;20033;-64
2021/03/06 07:59:09;;;;;;;21.20;10.85;;;;;;;;;;5028134;28;20099;-64
2021/03/06 08:01:36;;;;;;;27.38;12.73;;;;;;;;;;5011252;28;20026;-65
2021/03/06 08:04:03;;;;;;;26.00;13.07;;;;;;;;;;4995016;28;20065;-64
2021/03/06 08:06:33;;;;;;;23.35;12.25;;;;;;;;;;5021398;28;20061;-64
2021/03/06 08:09:09;;;;;;;22.30;11.18;;;;;;;;;;5032213;28;20053;-64
2021/03/06 08:11:35;;;;;;;25.70;12.43;;;;;;;;;;5032961;28;20489;-64
2021/03/06 08:14:05;;;;;;;23.90;11.80;;;;;;;;;;5015189;28;20041;-64
2021/03/06 08:16:32;;;;;;;19.67;11.02;;;;;;;;;;5032338;28;20500;-64
2021/03/06 08:19:12;;;;;;;19.58;10.90;;;;;;;;;;5031717;28;20064;-65
2021/03/06 08:21:47;;;;;;;25.20;10.68;;;;;;;;;;5024256;28;20512;-64
2021/03/06 08:26:40;;;;;;;24.10;11.10;;;;;;;;;;5020300;28;20065;-65
2021/03/06 08:29:22;;;;;;;25.55;11.07;;;;;;;;;;5032094;28;20060;-64
2021/03/06 08:32:06;;;;;;;24.40;10.93;;;;;;;;;;5021522;28;20037;-64
2021/03/06 08:34:38;;;;;;;24.98;11.45;;;;;;;;;;5014342;28;20030;-64
2021/03/06 08:37:16;;;;;;;24.05;10.80;;;;;;;;;;5013064;28;20533;-64
2021/03/06 08:39:42;;;;;;;20.92;11.38;;;;;;;;;;5024949;28;20029;-64
2021/03/06 08:42:09;;;;;;;22.15;11.35;;;0.70;99.90;;;;;;5000460;28;20022;-64
2021/03/06 08:44:35;;;;;;;21.50;11.43;;;2.50;99.90;;;;;;4998089;28;20032;-64
2021/03/06 08:47:02;;;;;;;24.05;13.73;;;2.80;99.90;;;;;;5030271;28;20026;-65
2021/03/06 08:49:28;;;;;;;23.05;11.82;;;2.80;99.90;;;;;;5035363;28;20032;-71
2021/03/06 08:51:54;;;;;;;21.52;10.25;;;2.90;99.90;;;;;;5032803;28;20022;-64
2021/03/06 08:54:21;;;;;;;20.20;9.63;;;3.00;99.90;;;;;;5014202;28;20037;-66
2021/03/06 08:56:47;;;;;;;19.77;10.38;;;3.00;99.90;;;;;;5032351;28;20036;-65
2021/03/06 08:59:13;;;;;;;23.40;10.65;;;3.20;99.90;;;;;;5013469;28;20051;-58
2021/03/06 09:01:39;;;;;;;21.13;9.95;;;3.20;99.90;;;;;;5009481;28;20018;-58
2021/03/06 09:04:07;;;;;;;20.25;9.75;;;3.20;99.90;;;;;;4994244;28;20025;-58
2021/03/06 09:06:34;;;;;;;17.65;10.35;;;3.20;99.90;;;;;;5012508;28;20022;-57
2021/03/06 09:09:00;;;;;;;22.00;10.80;;;3.30;99.90;;;;;;5027883;28;20041;-57
2021/03/06 09:11:28;;;;;;;21.13;10.02;;;3.40;99.90;;;;;;5002678;28;20036;-59
2021/03/06 09:13:54;;;;;;;22.38;9.93;;;3.40;99.90;;;;;;5014383;28;20036;-58
2021/03/06 09:16:20;;;;;;;18.35;10.73;;;;;;;;;;5012135;28;20123;-58
2021/03/06 09:18:47;;;;;;;19.73;10.25;;;;;;;;;;5030600;28;20095;-60
2021/03/06 09:21:15;;;;;;;22.77;11.68;;;;;;;;;;5009486;28;20021;-59
2021/03/06 09:23:42;;;;;;;20.25;10.73;;;3.40;99.90;;;;;;5032415;28;20021;-57
2021/03/06 09:26:12;;;;;;;19.17;10.13;;;3.80;99.90;;;;;;5032566;28;20060;-59
2021/03/06 09:28:39;;;;;;;21.42;10.63;;;;;;;;;;5019972;28;20038;-57
2021/03/06 09:31:10;;;;;;;19.52;9.50;;;;;;;;;;5013459;28;20037;-58
2021/03/06 09:33:38;;;;;;;18.50;9.20;;;;;;;;;;5011868;28;20025;-58
2021/03/06 09:36:08;;;;;;;19.40;10.07;;;;;;;;;;5016691;28;20045;-56
2021/03/06 09:38:41;;;;;;;17.42;9.45;;;;;;;;;;5026561;28;20112;-59
2021/03/06 09:41:08;;;;;;;16.73;9.25;;;3.90;99.90;;;;;;5009871;28;20029;-58
2021/03/06 09:43:35;;;;;;;16.50;8.75;;;4.70;99.90;;;;;;5004720;28;20435;-59
2021/03/06 09:46:02;;;;;;;16.23;9.35;;;4.80;99.90;;;;;;5011717;28;20018;-57
2021/03/06 09:48:29;;;;;;;16.90;9.90;;;4.80;99.90;;;;;;4992983;28;20037;-56
2021/03/06 09:50:57;;;;;;;16.15;9.15;;;4.80;99.90;;;;;;5009038;28;20486;-54
2021/03/06 09:53:27;;;;;;;18.88;9.88;;;4.80;99.90;;;;;;5026337;28;20121;-59
2021/03/06 09:56:13;;;;;;;16.42;10.30;;;4.90;99.90;;;;;;5030401;28;20070;-58
2021/03/06 09:58:40;;;;;;;15.50;9.45;;;5.10;99.90;;;;;;5027940;28;20091;-57
2021/03/06 10:01:18;;;;;;;18.10;9.60;;;5.30;99.90;;;;;;5013207;28;20024;-57
2021/03/06 10:03:45;;;;;;;16.00;9.68;;;5.20;99.90;;;;;;5010526;28;20108;-58
2021/03/06 10:06:13;;;;;;;16.77;9.50;;;5.20;99.90;;;;;;4993730;28;20442;-60
2021/03/06 10:08:47;;;;;;;;;;;5.50;99.90;;;;;;5011118;28;20425;-60
2021/03/06 10:11:14;;;;;;;16.05;10.07;;;;;;;;;;5010995;28;20315;-58
2021/03/06 10:13:42;;;;;;;17.40;9.77;;;5.40;99.90;;;;;;5011852;28;20057;-61
2021/03/06 10:16:09;;;;;;;16.83;9.43;;;5.70;99.90;;;;;;5011392;28;20026;-67
2021/03/06 10:18:39;;;;;;;18.48;10.98;;;5.60;99.90;;;;;;4992746;28;20094;-63
2021/03/06 10:21:16;;;;;;;16.77;9.90;;;5.70;99.90;;;;;;5012858;28;20413;-64
2021/03/06 10:23:42;;;;;;;19.45;10.10;;;5.80;99.90;;;;;;5015274;28;20105;-65
2021/03/06 10:26:15;;;;;;;16.35;9.23;;;5.80;99.90;;;;;;5014909;28;20114;-64
2021/03/06 10:28:42;;;;;;;16.33;9.25;;;5.80;99.90;;;;;;5014154;28;20030;-61
2021/03/06 10:31:45;;;;;;;17.02;9.38;;;5.80;99.90;;;;;;4997211;28;20516;-64
2021/03/06 10:34:22;;;;;;;17.00;9.50;;;5.50;99.90;;;;;;5014810;28;20033;-64
2021/03/06 10:37:08;;;;;;;15.60;9.48;;;5.90;99.90;;;;;;5014962;28;20080;-64
2021/03/06 10:39:48;;;;;;;14.52;9.02;;;6.00;99.90;;;;;;4979843;28;20038;-63
2021/03/06 10:42:14;;;;;;;18.58;10.00;;;6.20;99.90;;;;;;5013828;28;20464;-63
2021/03/06 10:44:41;;;;;;;15.80;9.50;;;6.20;99.90;;;;;;5013341;28;20042;-63
2021/03/06 10:47:07;;;;;;;18.77;10.18;;;6.20;99.90;;;;;;5014746;28;20140;-64
2021/03/06 10:49:37;;;;;;;16.60;9.80;;;6.10;99.90;;;;;;5013552;28;20104;-64
2021/03/06 10:52:05;;;;;;;17.17;10.45;;;6.70;99.90;;;;;;5014324;28;20021;-64
2021/03/06 10:54:49;;;;;;;30.48;19.73;;;7.20;99.90;;;;;;5012772;28;20034;-64
2021/03/06 10:57:14;;;;;;;27.17;15.73;;;7.70;99.90;;;;;;5014311;28;20055;-65
2021/03/06 10:59:40;;;;;;;18.80;10.80;;;;;;;;;;5013307;28;20509;-63
2021/03/06 11:02:07;;;;;;;23.45;12.90;;;;;;;;;;5011660;28;20032;-64
2021/03/06 11:04:34;;;;;;;23.30;14.50;;;;;;;;;;5033798;28;20053;-64
2021/03/06 11:07:01;;;;;;;28.60;19.98;;;;;;;;;;5016240;28;20026;-62
2021/03/06 11:09:28;;;;;;;23.90;15.32;;;;;;;;;;5024483;28;20044;-62
2021/03/06 11:11:56;;;;;;;17.48;11.95;;;8.20;99.90;;;;;;5021389;28;20025;-64
2021/03/06 11:14:30;;;;;;;19.10;13.45;;;9.70;92.10;;;;;;5021545;28;20036;-65
2021/03/06 11:16:55;;;;;;;17.17;10.90;;;9.30;91.70;;;;;;5013253;28;20104;-64
2021/03/06 11:19:22;;;;;;;15.20;10.57;;;9.30;92.20;;;;;;4994140;28;20173;-64
2021/03/06 11:21:47;;;;;;;15.77;10.68;;;9.40;91.60;;;;;;5014013;28;20434;-64
2021/03/06 11:24:13;;;;;;;19.27;11.60;;;;;;;;;;5013258;28;20101;-64
2021/03/06 11:26:39;;;;;;;16.00;10.98;;;10.00;91.00;;;;;;5014336;28;20026;-64
2021/03/06 11:29:05;;;;;;;24.15;11.65;;;10.20;90.20;;;;;;4995483;28;20386;-64
2021/03/06 11:31:32;;;;;;;18.30;11.30;;;10.70;88.70;;;;;;5014082;28;20022;-64
2021/03/06 11:33:59;;;;;;;18.10;11.15;;;10.10;90.00;;;;;;5013603;28;20018;-64
2021/03/06 11:36:25;;;;;;;18.65;10.80;;;9.70;87.60;;;;;;5014552;28;20017;-63
2021/03/06 11:38:51;;;;;;;15.98;10.38;;;10.10;89.10;;;;;;5019911;28;20053;-63
2021/03/06 11:41:17;;;;;;;16.35;10.80;;;10.40;86.20;;;;;;5008504;28;20133;-62
2021/03/06 11:43:43;;;;;;;18.92;11.55;;;10.40;87.30;;;;;;5018093;28;20501;-61
2021/03/06 11:46:09;;;;;;;17.23;11.05;;;10.50;86.70;;;;;;5013327;28;20438;-62
2021/03/06 11:48:34;;;;;;;17.90;10.70;;;10.20;86.10;;;;;;5012869;28;20037;-62
2021/03/06 11:51:00;;;;;;;19.00;11.05;;;9.70;84.00;;;;;;4995514;28;20018;-63
2021/03/06 11:53:25;;;;;;;15.48;10.65;;;9.60;85.30;;;;;;4995950;28;20053;-62
2021/03/06 11:55:51;;;;;;;16.75;10.80;;;9.60;86.70;;;;;;4995634;28;20022;-65
2021/03/06 11:58:17;;;;;;;17.48;10.93;;;10.30;85.60;;;;;;5013169;28;20053;-66
2021/03/06 12:00:43;;;;;;;16.58;10.75;;;10.00;82.50;;;;;;4999729;28;20022;-62
2021/03/06 12:03:09;;;;;;;15.73;10.88;;;10.40;87.00;;;;;;5032743;28;20026;-64
2021/03/06 12:05:35;;;;;;;17.45;11.07;;;;;;;;;;5015976;28;20440;-62
2021/03/06 12:08:04;;;;;;;17.77;11.30;;;10.80;81.70;;;;;;5025958;28;20108;-66
2021/03/06 12:10:30;;;;;;;16.73;11.20;;;;;;;;;;5023036;28;20044;-64
2021/03/06 12:12:57;;;;;;;15.65;11.13;;;;;;;;;;5033017;28;20441;-63
2021/03/06 12:15:23;;;;;;;15.70;11.40;;;;;;;;;;4996911;28;20026;-65
2021/03/06 12:17:50;;;;;;;15.65;11.85;;;;;;;;;;5021901;28;20061;-65
2021/03/06 12:20:17;;;;;;;19.73;11.90;;;;;;;;;;5026509;28;20022;-65
2021/03/06 12:22:44;;;;;;;15.98;11.15;;;;;;;;;;5022570;28;20480;-61
2021/03/06 12:25:11;;;;;;;16.38;11.82;;;;;;;;;;5021535;28;20517;-62
2021/03/06 12:27:37;;;;;;;19.08;12.70;;;;;;;;;;5020048;28;20104;-63
2021/03/06 12:30:07;;;;;;;16.08;11.90;;;;;;;;;;5024266;28;20026;-64
2021/03/06 12:32:34;;;;;;;18.13;10.90;;;;;;;;;;5017845;28;20532;-65
2021/03/06 12:35:00;;;;;;;19.10;12.27;;;;;;;;;;5028663;28;20567;-63
2021/03/06 12:37:26;;;;;;;18.85;12.00;;;;;;;;;;5014761;28;20104;-63
2021/03/06 12:39:52;;;;;;;16.10;11.80;;;;;;;;;;5031597;28;20021;-63
2021/03/06 12:42:18;;;;;;;17.50;11.52;;;;;;;;;;5032324;28;20065;-64
2021/03/06 12:44:44;;;;;;;15.45;11.40;;;;;;;;;;5013842;28;20095;-62
2021/03/06 12:47:10;;;;;;;16.75;11.90;;;;;;;;;;5014745;28;20060;-62
2021/03/06 12:49:36;;;;;;;15.63;11.48;;;;;;;;;;5014048;28;20040;-66
2021/03/06 12:52:03;;;;;;;16.50;12.00;;;;;;;;;;5032496;28;20030;-63
2021/03/06 12:54:29;;;;;;;19.08;12.38;;;;;;;;;;5041443;23;20049;-65
2021/03/06 12:56:56;;;;;;;15.93;11.68;;;12.00;78.70;;;;;;5050442;28;20025;-65
2021/03/06 12:59:22;;;;;;;17.30;11.68;;;14.20;62.20;;;;;;4680706;28;10000564;-65
2021/03/06 13:01:48;;;;;;;15.85;11.68;;;;;;;;;;5030868;28;20067;-67
2021/03/06 13:04:14;;;;;;;16.48;11.70;;;;;;;;;;5039431;28;20686;-65
2021/03/06 13:06:40;;;;;;;15.50;11.40;;;;;;;;;;5010808;28;20030;-66
2021/03/06 13:09:07;;;;;;;21.02;11.98;;;;;;;;;;5023935;28;20029;-66
2021/03/06 13:11:33;;;;;;;17.25;12.40;;;;;;;;;;5015942;28;20113;-66
2021/03/06 13:14:00;;;;;;;16.23;12.00;;;;;;;;;;5010105;28;20055;-67
2021/03/06 13:16:25;;;;;;;16.55;11.77;;;;;;;;;;5028920;28;20038;-66
2021/03/06 13:18:51;;;;;;;16.73;12.20;;;;;;;;;;5028710;28;20025;-64
2021/03/06 13:21:18;;;;;;;16.05;11.73;;;;;;;;;;5029209;28;20105;-63
2021/03/06 13:23:44;;;;;;;16.38;12.00;;;;;;;;;;5027433;28;20112;-64
2021/03/06 13:26:10;;;;;;;16.85;12.15;;;;;;;;;;5029018;28;20072;-65
2021/03/06 13:28:36;;;;;;;16.30;11.85;;;;;;;;;;5011714;28;20025;-63
2021/03/06 13:31:03;;;;;;;15.63;11.57;;;;;;;;;;5014210;28;20079;-64
2021/03/06 13:33:30;;;;;;;16.13;11.43;;;;;;;;;;5029746;28;20033;-64
2021/03/06 13:35:56;;;;;;;15.60;11.55;;;;;;;;;;5026494;28;20026;-63
2021/03/06 13:38:22;;;;;;;15.63;11.85;;;;;;;;;;5026069;28;20033;-65
2021/03/06 13:40:48;;;;;;;16.50;11.80;;;;;;;;;;5029285;28;20025;-64
2021/03/06 13:43:14;;;;;;;16.48;11.40;;;;;;;;;;5029404;28;20036;-65
2021/03/06 13:45:40;;;;;;;15.88;11.90;;;;;;;;;;5029679;28;20056;-64
2021/03/06 13:48:06;;;;;;;17.42;12.35;;;;;;;;;;5031101;28;20028;-65
2021/03/06 13:50:33;;;;;;;16.50;11.80;;;17.00;58.00;;;;;;4682085;28;10001237;-62
2021/03/06 13:53:00;;;;;;;15.40;11.57;;;21.10;50.70;;;;;;5011385;28;20034;-66
2021/03/06 13:55:26;;;;;;;15.63;12.20;;;21.70;48.00;;;;;;5027959;28;20114;-65
2021/03/06 13:57:53;;;;;;;17.05;12.38;;;21.40;49.30;;;;;;5031998;28;20044;-64